sensor_id;sensor_type;location;lat;lon;timestamp;P1;durP1;ratioP1;P2;durP2;ratioP2
2630;SDS011;1325;48.414;9.952;2022-07-11T00:02:22;34.20;;;2.40;;
2630;SDS011;1325;48.414;9.952;2022-07-11T00:04:50;34.97;;;2.37;;
2630;SDS011;1325;48.414;9.952;2022-07-11T00:07:18;35.30;;;2.20;;
2630;SDS011;1325;48.414;9.952;2022-07-11T00:09:45;34.37;;;2.40;;
2630;SDS011;1325;48.414;9.952;2022-07-11T00:12:13;34.80;;;2.33;;
2630;SDS011;1325;48.414;9.952;2022-07-11T00:14:40;34.90;;;2.73;;
2630;SDS011;1325;48.414;9.952;2022-07-11T00:17:08;34.30;;;2.10;;
2630;SDS011;1325;48.414;9.952;2022-07-11T00:19:36;35.73;;;2.53;;
2630;SDS011;1325;48.414;9.952;2022-07-11T00:22:04;33.70;;;2.27;;
2630;SDS011;1325;48.414;9.952;2022-07-11T00:24:33;35.03;;;2.60;;
2630;SDS011;1325;48.414;9.952;2022-07-11T00:27:00;33.90;;;2.60;;
2630;SDS011;1325;48.414;9.952;2022-07-11T00:29:27;34.77;;;2.70;;
2630;SDS011;1325;48.414;9.952;2022-07-11T00:31:55;34.23;;;2.23;;
2630;SDS011;1325;48.414;9.952;2022-07-11T00:34:22;32.87;;;2.23;;
2630;SDS011;1325;48.414;9.952;2022-07-11T00:36:49;34.53;;;2.23;;
2630;SDS011;1325;48.414;9.952;2022-07-11T00:39:17;33.53;;;2.20;;
2630;SDS011;1325;48.414;9.952;2022-07-11T00:41:45;35.73;;;2.70;;
2630;SDS011;1325;48.414;9.952;2022-07-11T00:44:12;33.10;;;2.63;;
2630;SDS011;1325;48.414;9.952;2022-07-11T00:46:40;34.40;;;2.60;;
2630;SDS011;1325;48.414;9.952;2022-07-11T00:49:08;33.07;;;2.60;;
2630;SDS011;1325;48.414;9.952;2022-07-11T00:51:35;33.97;;;2.97;;
2630;SDS011;1325;48.414;9.952;2022-07-11T00:54:02;33.60;;;2.90;;
2630;SDS011;1325;48.414;9.952;2022-07-11T00:56:33;35.40;;;2.67;;
2630;SDS011;1325;48.414;9.952;2022-07-11T00:59:01;32.80;;;2.40;;
2630;SDS011;1325;48.414;9.952;2022-07-11T01:01:29;33.90;;;2.63;;
2630;SDS011;1325;48.414;9.952;2022-07-11T01:03:57;32.93;;;2.40;;
2630;SDS011;1325;48.414;9.952;2022-07-11T01:06:24;33.17;;;2.50;;
2630;SDS011;1325;48.414;9.952;2022-07-11T01:08:51;33.47;;;2.40;;
2630;SDS011;1325;48.414;9.952;2022-07-11T01:11:19;34.33;;;2.93;;
2630;SDS011;1325;48.414;9.952;2022-07-11T01:13:46;33.67;;;2.87;;
2630;SDS011;1325;48.414;9.952;2022-07-11T01:16:15;35.17;;;3.20;;
2630;SDS011;1325;48.414;9.952;2022-07-11T01:18:45;34.20;;;2.63;;
2630;SDS011;1325;48.414;9.952;2022-07-11T01:21:23;36.20;;;3.70;;
2630;SDS011;1325;48.414;9.952;2022-07-11T01:23:54;32.90;;;2.63;;
2630;SDS011;1325;48.414;9.952;2022-07-11T01:26:23;36.67;;;2.70;;
2630;SDS011;1325;48.414;9.952;2022-07-11T01:28:51;34.03;;;3.10;;
2630;SDS011;1325;48.414;9.952;2022-07-11T01:31:21;32.60;;;2.40;;
2630;SDS011;1325;48.414;9.952;2022-07-11T01:33:49;33.60;;;2.80;;
2630;SDS011;1325;48.414;9.952;2022-07-11T01:36:16;34.00;;;2.90;;
2630;SDS011;1325;48.414;9.952;2022-07-11T01:38:43;34.20;;;2.93;;
2630;SDS011;1325;48.414;9.952;2022-07-11T01:41:12;33.20;;;3.40;;
2630;SDS011;1325;48.414;9.952;2022-07-11T01:43:39;33.27;;;3.00;;
2630;SDS011;1325;48.414;9.952;2022-07-11T01:46:06;33.23;;;2.80;;
2630;SDS011;1325;48.414;9.952;2022-07-11T01:48:33;35.10;;;3.27;;
2630;SDS011;1325;48.414;9.952;2022-07-11T01:51:00;32.70;;;3.13;;
2630;SDS011;1325;48.414;9.952;2022-07-11T01:53:27;32.90;;;3.13;;
2630;SDS011;1325;48.414;9.952;2022-07-11T01:55:54;35.30;;;3.77;;
2630;SDS011;1325;48.414;9.952;2022-07-11T01:58:23;32.97;;;2.80;;
2630;SDS011;1325;48.414;9.952;2022-07-11T02:00:50;33.47;;;3.63;;
2630;SDS011;1325;48.414;9.952;2022-07-11T02:03:17;34.27;;;2.93;;
2630;SDS011;1325;48.414;9.952;2022-07-11T02:05:44;33.03;;;3.30;;
2630;SDS011;1325;48.414;9.952;2022-07-11T02:08:11;32.83;;;2.77;;
2630;SDS011;1325;48.414;9.952;2022-07-11T02:10:37;32.80;;;2.80;;
2630;SDS011;1325;48.414;9.952;2022-07-11T02:13:06;33.60;;;3.40;;
2630;SDS011;1325;48.414;9.952;2022-07-11T02:15:36;36.20;;;3.37;;
2630;SDS011;1325;48.414;9.952;2022-07-11T02:18:03;35.43;;;2.77;;
2630;SDS011;1325;48.414;9.952;2022-07-11T02:20:30;33.00;;;2.60;;
2630;SDS011;1325;48.414;9.952;2022-07-11T02:22:58;35.23;;;2.93;;
2630;SDS011;1325;48.414;9.952;2022-07-11T02:25:25;32.93;;;2.50;;
2630;SDS011;1325;48.414;9.952;2022-07-11T02:27:53;36.90;;;3.10;;
2630;SDS011;1325;48.414;9.952;2022-07-11T02:30:20;32.83;;;3.17;;
2630;SDS011;1325;48.414;9.952;2022-07-11T02:32:49;32.83;;;3.20;;
2630;SDS011;1325;48.414;9.952;2022-07-11T02:35:16;32.40;;;2.77;;
2630;SDS011;1325;48.414;9.952;2022-07-11T02:37:44;33.53;;;3.00;;
2630;SDS011;1325;48.414;9.952;2022-07-11T02:40:11;33.77;;;3.40;;
2630;SDS011;1325;48.414;9.952;2022-07-11T02:42:38;34.70;;;3.30;;
2630;SDS011;1325;48.414;9.952;2022-07-11T02:45:06;33.50;;;3.20;;
2630;SDS011;1325;48.414;9.952;2022-07-11T02:47:34;32.67;;;2.80;;
2630;SDS011;1325;48.414;9.952;2022-07-11T02:50:06;34.60;;;3.93;;
2630;SDS011;1325;48.414;9.952;2022-07-11T02:52:36;33.00;;;2.80;;
2630;SDS011;1325;48.414;9.952;2022-07-11T02:55:05;33.23;;;3.40;;
2630;SDS011;1325;48.414;9.952;2022-07-11T02:57:34;34.13;;;3.23;;
2630;SDS011;1325;48.414;9.952;2022-07-11T03:00:01;35.40;;;3.40;;
2630;SDS011;1325;48.414;9.952;2022-07-11T03:02:30;33.30;;;3.53;;
2630;SDS011;1325;48.414;9.952;2022-07-11T03:04:57;33.27;;;3.07;;
2630;SDS011;1325;48.414;9.952;2022-07-11T03:07:26;33.50;;;3.30;;
2630;SDS011;1325;48.414;9.952;2022-07-11T03:09:54;32.60;;;2.90;;
2630;SDS011;1325;48.414;9.952;2022-07-11T03:12:21;32.80;;;3.03;;
2630;SDS011;1325;48.414;9.952;2022-07-11T03:14:49;33.70;;;3.57;;
2630;SDS011;1325;48.414;9.952;2022-07-11T03:17:16;33.07;;;3.20;;
2630;SDS011;1325;48.414;9.952;2022-07-11T03:19:43;33.20;;;3.20;;
2630;SDS011;1325;48.414;9.952;2022-07-11T03:22:12;36.33;;;3.57;;
2630;SDS011;1325;48.414;9.952;2022-07-11T03:24:40;35.57;;;3.10;;
2630;SDS011;1325;48.414;9.952;2022-07-11T03:27:07;34.50;;;3.17;;
2630;SDS011;1325;48.414;9.952;2022-07-11T03:29:35;36.67;;;2.87;;
2630;SDS011;1325;48.414;9.952;2022-07-11T03:32:02;37.50;;;2.80;;
2630;SDS011;1325;48.414;9.952;2022-07-11T03:34:31;33.07;;;2.77;;
2630;SDS011;1325;48.414;9.952;2022-07-11T03:36:58;32.87;;;3.00;;
2630;SDS011;1325;48.414;9.952;2022-07-11T03:39:25;34.53;;;2.90;;
2630;SDS011;1325;48.414;9.952;2022-07-11T03:41:54;33.93;;;3.10;;
2630;SDS011;1325;48.414;9.952;2022-07-11T03:44:21;33.30;;;3.07;;
2630;SDS011;1325;48.414;9.952;2022-07-11T03:46:49;36.17;;;3.60;;
2630;SDS011;1325;48.414;9.952;2022-07-11T03:49:16;35.00;;;2.63;;
2630;SDS011;1325;48.414;9.952;2022-07-11T03:51:43;33.13;;;2.83;;
2630;SDS011;1325;48.414;9.952;2022-07-11T03:54:10;33.67;;;3.43;;
2630;SDS011;1325;48.414;9.952;2022-07-11T03:56:37;33.30;;;3.07;;
2630;SDS011;1325;48.414;9.952;2022-07-11T03:59:06;35.00;;;3.53;;
2630;SDS011;1325;48.414;9.952;2022-07-11T04:01:34;33.33;;;3.10;;
2630;SDS011;1325;48.414;9.952;2022-07-11T04:04:01;34.23;;;3.23;;
2630;SDS011;1325;48.414;9.952;2022-07-11T04:06:28;34.57;;;3.23;;
2630;SDS011;1325;48.414;9.952;2022-07-11T04:08:55;37.87;;;3.53;;
2630;SDS011;1325;48.414;9.952;2022-07-11T04:11:22;33.57;;;3.03;;
2630;SDS011;1325;48.414;9.952;2022-07-11T04:13:50;37.13;;;3.10;;
2630;SDS011;1325;48.414;9.952;2022-07-11T04:16:18;34.60;;;3.33;;
2630;SDS011;1325;48.414;9.952;2022-07-11T04:18:45;33.90;;;3.00;;
2630;SDS011;1325;48.414;9.952;2022-07-11T04:21:13;35.73;;;4.33;;
2630;SDS011;1325;48.414;9.952;2022-07-11T04:23:40;35.67;;;3.93;;
2630;SDS011;1325;48.414;9.952;2022-07-11T04:26:08;35.93;;;3.20;;
2630;SDS011;1325;48.414;9.952;2022-07-11T04:28:35;36.07;;;3.30;;
2630;SDS011;1325;48.414;9.952;2022-07-11T04:31:02;34.20;;;3.10;;
2630;SDS011;1325;48.414;9.952;2022-07-11T04:33:31;33.17;;;2.80;;
2630;SDS011;1325;48.414;9.952;2022-07-11T04:35:59;34.77;;;2.97;;
2630;SDS011;1325;48.414;9.952;2022-07-11T04:38:26;34.70;;;3.20;;
2630;SDS011;1325;48.414;9.952;2022-07-11T04:40:53;33.80;;;2.80;;
2630;SDS011;1325;48.414;9.952;2022-07-11T04:43:21;34.40;;;3.43;;
2630;SDS011;1325;48.414;9.952;2022-07-11T04:45:48;35.10;;;2.87;;
2630;SDS011;1325;48.414;9.952;2022-07-11T04:48:16;34.27;;;3.00;;
2630;SDS011;1325;48.414;9.952;2022-07-11T04:50:45;33.37;;;2.73;;
2630;SDS011;1325;48.414;9.952;2022-07-11T04:53:12;33.57;;;3.10;;
2630;SDS011;1325;48.414;9.952;2022-07-11T04:55:39;35.60;;;3.67;;
2630;SDS011;1325;48.414;9.952;2022-07-11T04:58:07;33.27;;;2.73;;
2630;SDS011;1325;48.414;9.952;2022-07-11T05:00:34;35.00;;;3.20;;
2630;SDS011;1325;48.414;9.952;2022-07-11T05:03:02;33.63;;;2.80;;
2630;SDS011;1325;48.414;9.952;2022-07-11T05:05:30;32.80;;;2.50;;
2630;SDS011;1325;48.414;9.952;2022-07-11T05:07:58;34.63;;;3.03;;
2630;SDS011;1325;48.414;9.952;2022-07-11T05:10:26;35.00;;;3.10;;
2630;SDS011;1325;48.414;9.952;2022-07-11T05:12:53;32.70;;;2.57;;
2630;SDS011;1325;48.414;9.952;2022-07-11T05:15:20;35.27;;;2.90;;
2630;SDS011;1325;48.414;9.952;2022-07-11T05:17:47;35.90;;;2.67;;
2630;SDS011;1325;48.414;9.952;2022-07-11T05:20:15;33.07;;;2.77;;
2630;SDS011;1325;48.414;9.952;2022-07-11T05:22:42;32.60;;;2.50;;
2630;SDS011;1325;48.414;9.952;2022-07-11T05:25:11;33.07;;;2.70;;
2630;SDS011;1325;48.414;9.952;2022-07-11T05:27:38;32.90;;;2.53;;
2630;SDS011;1325;48.414;9.952;2022-07-11T05:30:06;34.30;;;2.97;;
2630;SDS011;1325;48.414;9.952;2022-07-11T05:32:35;33.27;;;3.50;;
2630;SDS011;1325;48.414;9.952;2022-07-11T05:35:02;33.40;;;2.57;;
2630;SDS011;1325;48.414;9.952;2022-07-11T05:37:30;34.93;;;3.00;;
2630;SDS011;1325;48.414;9.952;2022-07-11T05:39:58;34.87;;;3.33;;
2630;SDS011;1325;48.414;9.952;2022-07-11T05:42:26;34.00;;;2.80;;
2630;SDS011;1325;48.414;9.952;2022-07-11T05:44:54;35.27;;;3.43;;
2630;SDS011;1325;48.414;9.952;2022-07-11T05:47:21;36.97;;;3.73;;
2630;SDS011;1325;48.414;9.952;2022-07-11T05:49:48;34.37;;;3.20;;
2630;SDS011;1325;48.414;9.952;2022-07-11T05:52:15;35.80;;;3.17;;
2630;SDS011;1325;48.414;9.952;2022-07-11T05:54:42;34.23;;;2.90;;
2630;SDS011;1325;48.414;9.952;2022-07-11T05:57:09;35.80;;;3.00;;
2630;SDS011;1325;48.414;9.952;2022-07-11T05:59:38;36.13;;;3.63;;
2630;SDS011;1325;48.414;9.952;2022-07-11T06:02:05;33.40;;;2.40;;
2630;SDS011;1325;48.414;9.952;2022-07-11T06:04:33;36.73;;;3.07;;
2630;SDS011;1325;48.414;9.952;2022-07-11T06:07:02;34.40;;;2.90;;
2630;SDS011;1325;48.414;9.952;2022-07-11T06:09:29;33.20;;;2.60;;
2630;SDS011;1325;48.414;9.952;2022-07-11T06:11:55;34.47;;;2.80;;
2630;SDS011;1325;48.414;9.952;2022-07-11T06:14:23;34.40;;;3.20;;
2630;SDS011;1325;48.414;9.952;2022-07-11T06:16:52;33.60;;;2.60;;
2630;SDS011;1325;48.414;9.952;2022-07-11T06:19:19;35.33;;;2.60;;
2630;SDS011;1325;48.414;9.952;2022-07-11T06:21:47;33.37;;;2.67;;
2630;SDS011;1325;48.414;9.952;2022-07-11T06:24:14;32.93;;;2.53;;
2630;SDS011;1325;48.414;9.952;2022-07-11T06:26:41;34.57;;;2.80;;
2630;SDS011;1325;48.414;9.952;2022-07-11T06:29:08;34.00;;;2.70;;
2630;SDS011;1325;48.414;9.952;2022-07-11T06:31:35;33.10;;;2.63;;
2630;SDS011;1325;48.414;9.952;2022-07-11T06:34:04;32.50;;;2.60;;
2630;SDS011;1325;48.414;9.952;2022-07-11T06:36:31;35.57;;;3.00;;
2630;SDS011;1325;48.414;9.952;2022-07-11T06:38:58;33.07;;;2.67;;
2630;SDS011;1325;48.414;9.952;2022-07-11T06:41:25;32.83;;;2.60;;
2630;SDS011;1325;48.414;9.952;2022-07-11T06:43:52;33.50;;;2.40;;
2630;SDS011;1325;48.414;9.952;2022-07-11T06:46:19;32.00;;;2.60;;
2630;SDS011;1325;48.414;9.952;2022-07-11T06:48:47;33.40;;;2.33;;
2630;SDS011;1325;48.414;9.952;2022-07-11T06:51:15;33.17;;;2.60;;
2630;SDS011;1325;48.414;9.952;2022-07-11T06:53:42;32.63;;;2.70;;
2630;SDS011;1325;48.414;9.952;2022-07-11T06:56:16;34.77;;;2.67;;
2630;SDS011;1325;48.414;9.952;2022-07-11T06:58:43;33.33;;;2.27;;
2630;SDS011;1325;48.414;9.952;2022-07-11T07:01:10;33.73;;;2.47;;
2630;SDS011;1325;48.414;9.952;2022-07-11T07:03:37;33.10;;;2.30;;
2630;SDS011;1325;48.414;9.952;2022-07-11T07:06:04;33.40;;;3.07;;
2630;SDS011;1325;48.414;9.952;2022-07-11T07:08:33;33.50;;;2.77;;
2630;SDS011;1325;48.414;9.952;2022-07-11T07:11:00;33.13;;;3.33;;
2630;SDS011;1325;48.414;9.952;2022-07-11T07:13:27;34.30;;;2.70;;
2630;SDS011;1325;48.414;9.952;2022-07-11T07:15:55;32.67;;;2.87;;
2630;SDS011;1325;48.414;9.952;2022-07-11T07:18:25;33.63;;;2.83;;
2630;SDS011;1325;48.414;9.952;2022-07-11T07:20:52;36.33;;;3.03;;
2630;SDS011;1325;48.414;9.952;2022-07-11T07:23:19;32.40;;;2.40;;
2630;SDS011;1325;48.414;9.952;2022-07-11T07:25:48;33.07;;;2.60;;
2630;SDS011;1325;48.414;9.952;2022-07-11T07:28:15;33.50;;;2.47;;
2630;SDS011;1325;48.414;9.952;2022-07-11T07:30:42;32.37;;;2.57;;
2630;SDS011;1325;48.414;9.952;2022-07-11T07:33:10;32.63;;;2.63;;
2630;SDS011;1325;48.414;9.952;2022-07-11T07:35:38;34.27;;;2.83;;
2630;SDS011;1325;48.414;9.952;2022-07-11T07:38:05;32.40;;;2.63;;
2630;SDS011;1325;48.414;9.952;2022-07-11T07:40:32;33.60;;;2.47;;
2630;SDS011;1325;48.414;9.952;2022-07-11T07:43:01;37.33;;;3.60;;
2630;SDS011;1325;48.414;9.952;2022-07-11T07:45:28;33.87;;;2.93;;
2630;SDS011;1325;48.414;9.952;2022-07-11T07:47:55;35.20;;;3.20;;
2630;SDS011;1325;48.414;9.952;2022-07-11T07:50:22;33.80;;;3.00;;
2630;SDS011;1325;48.414;9.952;2022-07-11T07:52:49;35.03;;;3.00;;
2630;SDS011;1325;48.414;9.952;2022-07-11T07:55:17;32.90;;;2.50;;
2630;SDS011;1325;48.414;9.952;2022-07-11T07:57:44;32.40;;;2.90;;
2630;SDS011;1325;48.414;9.952;2022-07-11T08:00:13;32.33;;;3.10;;
2630;SDS011;1325;48.414;9.952;2022-07-11T08:03:03;31.30;;;2.30;;
2630;SDS011;1325;48.414;9.952;2022-07-11T08:05:30;31.87;;;2.30;;
2630;SDS011;1325;48.414;9.952;2022-07-11T08:07:58;32.07;;;2.20;;
2630;SDS011;1325;48.414;9.952;2022-07-11T08:10:26;31.27;;;1.80;;
2630;SDS011;1325;48.414;9.952;2022-07-11T08:12:53;30.77;;;1.70;;
2630;SDS011;1325;48.414;9.952;2022-07-11T08:15:22;31.67;;;2.00;;
2630;SDS011;1325;48.414;9.952;2022-07-11T08:17:49;30.37;;;1.80;;
2630;SDS011;1325;48.414;9.952;2022-07-11T08:20:17;30.87;;;1.53;;
2630;SDS011;1325;48.414;9.952;2022-07-11T08:22:44;30.30;;;1.77;;
2630;SDS011;1325;48.414;9.952;2022-07-11T08:25:12;30.70;;;1.90;;
2630;SDS011;1325;48.414;9.952;2022-07-11T08:27:39;31.33;;;1.60;;
2630;SDS011;1325;48.414;9.952;2022-07-11T08:30:07;31.47;;;1.73;;
2630;SDS011;1325;48.414;9.952;2022-07-11T08:32:38;30.87;;;1.90;;
2630;SDS011;1325;48.414;9.952;2022-07-11T08:35:06;32.17;;;2.20;;
2630;SDS011;1325;48.414;9.952;2022-07-11T08:37:34;31.10;;;1.87;;
2630;SDS011;1325;48.414;9.952;2022-07-11T08:40:02;31.40;;;1.80;;
2630;SDS011;1325;48.414;9.952;2022-07-11T08:42:30;31.53;;;1.70;;
2630;SDS011;1325;48.414;9.952;2022-07-11T08:45:03;31.20;;;1.60;;
2630;SDS011;1325;48.414;9.952;2022-07-11T08:47:31;31.00;;;1.43;;
2630;SDS011;1325;48.414;9.952;2022-07-11T08:50:01;31.00;;;1.13;;
2630;SDS011;1325;48.414;9.952;2022-07-11T08:52:29;30.67;;;1.10;;
2630;SDS011;1325;48.414;9.952;2022-07-11T08:54:57;29.90;;;0.80;;
2630;SDS011;1325;48.414;9.952;2022-07-11T08:57:25;29.93;;;0.90;;
2630;SDS011;1325;48.414;9.952;2022-07-11T08:59:53;29.60;;;1.00;;
2630;SDS011;1325;48.414;9.952;2022-07-11T09:02:21;29.60;;;0.90;;
2630;SDS011;1325;48.414;9.952;2022-07-11T09:04:50;29.50;;;0.70;;
2630;SDS011;1325;48.414;9.952;2022-07-11T09:07:25;30.50;;;1.20;;
2630;SDS011;1325;48.414;9.952;2022-07-11T09:09:54;29.40;;;0.80;;
2630;SDS011;1325;48.414;9.952;2022-07-11T09:12:21;29.50;;;0.90;;
2630;SDS011;1325;48.414;9.952;2022-07-11T09:14:48;29.73;;;0.90;;
2630;SDS011;1325;48.414;9.952;2022-07-11T09:17:23;30.70;;;0.90;;
2630;SDS011;1325;48.414;9.952;2022-07-11T09:19:53;29.70;;;1.00;;
2630;SDS011;1325;48.414;9.952;2022-07-11T09:22:21;29.70;;;0.80;;
2630;SDS011;1325;48.414;9.952;2022-07-11T09:25:09;29.70;;;0.90;;
2630;SDS011;1325;48.414;9.952;2022-07-11T09:27:49;29.80;;;0.87;;
2630;SDS011;1325;48.414;9.952;2022-07-11T09:30:19;29.90;;;0.90;;
2630;SDS011;1325;48.414;9.952;2022-07-11T09:32:57;30.10;;;0.90;;
2630;SDS011;1325;48.414;9.952;2022-07-11T09:35:26;29.93;;;1.00;;
2630;SDS011;1325;48.414;9.952;2022-07-11T09:37:56;29.87;;;1.00;;
2630;SDS011;1325;48.414;9.952;2022-07-11T09:40:24;30.03;;;1.00;;
2630;SDS011;1325;48.414;9.952;2022-07-11T09:42:52;29.87;;;0.90;;
2630;SDS011;1325;48.414;9.952;2022-07-11T09:45:21;29.87;;;0.90;;
2630;SDS011;1325;48.414;9.952;2022-07-11T09:47:51;30.00;;;0.80;;
2630;SDS011;1325;48.414;9.952;2022-07-11T09:50:20;29.70;;;0.90;;
2630;SDS011;1325;48.414;9.952;2022-07-11T09:52:59;29.70;;;1.00;;
2630;SDS011;1325;48.414;9.952;2022-07-11T09:55:30;29.43;;;0.70;;
2630;SDS011;1325;48.414;9.952;2022-07-11T09:57:58;29.77;;;1.00;;
2630;SDS011;1325;48.414;9.952;2022-07-11T10:00:29;29.53;;;1.00;;
2630;SDS011;1325;48.414;9.952;2022-07-11T10:02:58;29.50;;;1.00;;
2630;SDS011;1325;48.414;9.952;2022-07-11T10:05:26;29.30;;;0.90;;
2630;SDS011;1325;48.414;9.952;2022-07-11T10:07:54;29.43;;;0.90;;
2630;SDS011;1325;48.414;9.952;2022-07-11T10:10:22;29.87;;;0.90;;
2630;SDS011;1325;48.414;9.952;2022-07-11T10:12:52;29.30;;;0.90;;
2630;SDS011;1325;48.414;9.952;2022-07-11T10:15:21;29.50;;;0.90;;
2630;SDS011;1325;48.414;9.952;2022-07-11T10:17:54;29.50;;;0.93;;
2630;SDS011;1325;48.414;9.952;2022-07-11T10:20:34;29.30;;;0.90;;
2630;SDS011;1325;48.414;9.952;2022-07-11T10:23:13;29.50;;;1.07;;
2630;SDS011;1325;48.414;9.952;2022-07-11T10:25:48;29.50;;;1.00;;
2630;SDS011;1325;48.414;9.952;2022-07-11T10:28:24;29.40;;;0.87;;
2630;SDS011;1325;48.414;9.952;2022-07-11T10:30:57;32.43;;;1.10;;
2630;SDS011;1325;48.414;9.952;2022-07-11T10:33:25;29.50;;;0.90;;
2630;SDS011;1325;48.414;9.952;2022-07-11T10:35:53;29.70;;;1.10;;
2630;SDS011;1325;48.414;9.952;2022-07-11T10:38:21;29.90;;;1.10;;
2630;SDS011;1325;48.414;9.952;2022-07-11T10:40:50;29.60;;;1.00;;
2630;SDS011;1325;48.414;9.952;2022-07-11T10:43:33;29.67;;;1.00;;
2630;SDS011;1325;48.414;9.952;2022-07-11T10:46:04;29.80;;;1.10;;
2630;SDS011;1325;48.414;9.952;2022-07-11T10:48:33;29.77;;;1.00;;
2630;SDS011;1325;48.414;9.952;2022-07-11T10:51:10;29.90;;;0.90;;
2630;SDS011;1325;48.414;9.952;2022-07-11T10:53:47;30.10;;;1.10;;
2630;SDS011;1325;48.414;9.952;2022-07-11T10:56:26;29.90;;;1.10;;
2630;SDS011;1325;48.414;9.952;2022-07-11T10:59:14;29.60;;;0.90;;
2630;SDS011;1325;48.414;9.952;2022-07-11T11:04:48;29.93;;;1.20;;
2630;SDS011;1325;48.414;9.952;2022-07-11T11:07:29;29.60;;;1.10;;
2630;SDS011;1325;48.414;9.952;2022-07-11T11:10:00;29.80;;;1.23;;
2630;SDS011;1325;48.414;9.952;2022-07-11T11:15:40;30.53;;;1.10;;
2630;SDS011;1325;48.414;9.952;2022-07-11T11:21:13;29.90;;;1.17;;
2630;SDS011;1325;48.414;9.952;2022-07-11T11:24:03;30.53;;;1.43;;
2630;SDS011;1325;48.414;9.952;2022-07-11T11:26:41;30.47;;;1.40;;
2630;SDS011;1325;48.414;9.952;2022-07-11T11:29:18;29.80;;;1.20;;
2630;SDS011;1325;48.414;9.952;2022-07-11T11:31:50;30.10;;;1.50;;
2630;SDS011;1325;48.414;9.952;2022-07-11T11:34:21;29.97;;;1.13;;
2630;SDS011;1325;48.414;9.952;2022-07-11T11:36:56;29.80;;;1.10;;
2630;SDS011;1325;48.414;9.952;2022-07-11T11:39:29;30.00;;;1.30;;
2630;SDS011;1325;48.414;9.952;2022-07-11T11:42:03;30.20;;;1.50;;
2630;SDS011;1325;48.414;9.952;2022-07-11T11:44:32;30.50;;;1.30;;
2630;SDS011;1325;48.414;9.952;2022-07-11T11:47:02;30.27;;;1.67;;
2630;SDS011;1325;48.414;9.952;2022-07-11T11:49:40;30.10;;;1.20;;
2630;SDS011;1325;48.414;9.952;2022-07-11T11:52:08;30.27;;;1.20;;
2630;SDS011;1325;48.414;9.952;2022-07-11T11:54:37;29.60;;;1.00;;
2630;SDS011;1325;48.414;9.952;2022-07-11T11:57:06;29.53;;;1.10;;
2630;SDS011;1325;48.414;9.952;2022-07-11T11:59:36;30.27;;;1.33;;
2630;SDS011;1325;48.414;9.952;2022-07-11T12:02:05;31.60;;;1.30;;
2630;SDS011;1325;48.414;9.952;2022-07-11T12:04:35;29.67;;;1.23;;
2630;SDS011;1325;48.414;9.952;2022-07-11T12:07:03;29.57;;;1.10;;
2630;SDS011;1325;48.414;9.952;2022-07-11T12:09:31;30.40;;;1.40;;
2630;SDS011;1325;48.414;9.952;2022-07-11T12:12:19;30.17;;;1.37;;
2630;SDS011;1325;48.414;9.952;2022-07-11T12:15:05;30.00;;;1.40;;
2630;SDS011;1325;48.414;9.952;2022-07-11T12:17:47;30.10;;;1.30;;
2630;SDS011;1325;48.414;9.952;2022-07-11T12:20:32;29.77;;;1.30;;
2630;SDS011;1325;48.414;9.952;2022-07-11T12:23:05;29.90;;;1.30;;
2630;SDS011;1325;48.414;9.952;2022-07-11T12:25:34;30.30;;;1.10;;
2630;SDS011;1325;48.414;9.952;2022-07-11T12:28:02;29.77;;;1.30;;
2630;SDS011;1325;48.414;9.952;2022-07-11T12:30:33;29.87;;;1.20;;
2630;SDS011;1325;48.414;9.952;2022-07-11T12:33:03;30.80;;;1.60;;
2630;SDS011;1325;48.414;9.952;2022-07-11T12:35:52;30.20;;;1.30;;
2630;SDS011;1325;48.414;9.952;2022-07-11T12:38:22;30.87;;;1.60;;
2630;SDS011;1325;48.414;9.952;2022-07-11T12:41:02;29.90;;;1.30;;
2630;SDS011;1325;48.414;9.952;2022-07-11T12:43:40;29.97;;;1.33;;
2630;SDS011;1325;48.414;9.952;2022-07-11T12:46:28;30.10;;;1.30;;
2630;SDS011;1325;48.414;9.952;2022-07-11T12:48:57;30.50;;;1.27;;
2630;SDS011;1325;48.414;9.952;2022-07-11T12:51:28;33.70;;;1.50;;
2630;SDS011;1325;48.414;9.952;2022-07-11T12:54:00;30.80;;;1.60;;
2630;SDS011;1325;48.414;9.952;2022-07-11T12:56:31;30.10;;;1.30;;
2630;SDS011;1325;48.414;9.952;2022-07-11T12:58:58;29.77;;;1.40;;
2630;SDS011;1325;48.414;9.952;2022-07-11T13:01:26;30.50;;;1.40;;
2630;SDS011;1325;48.414;9.952;2022-07-11T13:03:53;31.53;;;1.60;;
2630;SDS011;1325;48.414;9.952;2022-07-11T13:06:22;30.93;;;1.70;;
2630;SDS011;1325;48.414;9.952;2022-07-11T13:09:04;30.00;;;1.27;;
2630;SDS011;1325;48.414;9.952;2022-07-11T13:11:31;29.97;;;1.43;;
2630;SDS011;1325;48.414;9.952;2022-07-11T13:13:58;30.10;;;1.30;;
2630;SDS011;1325;48.414;9.952;2022-07-11T13:16:26;30.00;;;1.30;;
2630;SDS011;1325;48.414;9.952;2022-07-11T13:18:53;29.77;;;1.30;;
2630;SDS011;1325;48.414;9.952;2022-07-11T13:21:21;30.00;;;1.50;;
2630;SDS011;1325;48.414;9.952;2022-07-11T13:23:50;29.80;;;1.40;;
2630;SDS011;1325;48.414;9.952;2022-07-11T13:26:17;30.87;;;1.60;;
2630;SDS011;1325;48.414;9.952;2022-07-11T13:28:47;29.60;;;1.20;;
2630;SDS011;1325;48.414;9.952;2022-07-11T13:31:14;31.10;;;1.70;;
2630;SDS011;1325;48.414;9.952;2022-07-11T13:33:42;29.93;;;1.37;;
2630;SDS011;1325;48.414;9.952;2022-07-11T13:36:09;30.17;;;1.50;;
2630;SDS011;1325;48.414;9.952;2022-07-11T13:38:38;30.00;;;1.50;;
2630;SDS011;1325;48.414;9.952;2022-07-11T13:41:06;30.27;;;1.73;;
2630;SDS011;1325;48.414;9.952;2022-07-11T13:43:33;30.20;;;1.70;;
2630;SDS011;1325;48.414;9.952;2022-07-11T13:46:02;30.17;;;1.60;;
2630;SDS011;1325;48.414;9.952;2022-07-11T13:48:30;30.20;;;1.67;;
2630;SDS011;1325;48.414;9.952;2022-07-11T13:50:57;30.40;;;1.50;;
2630;SDS011;1325;48.414;9.952;2022-07-11T13:53:24;29.90;;;1.40;;
2630;SDS011;1325;48.414;9.952;2022-07-11T13:55:53;30.17;;;1.63;;
2630;SDS011;1325;48.414;9.952;2022-07-11T13:58:20;30.93;;;1.60;;
2630;SDS011;1325;48.414;9.952;2022-07-11T14:00:51;30.57;;;1.80;;
2630;SDS011;1325;48.414;9.952;2022-07-11T14:03:18;32.00;;;1.67;;
2630;SDS011;1325;48.414;9.952;2022-07-11T14:05:45;30.37;;;1.80;;
2630;SDS011;1325;48.414;9.952;2022-07-11T14:08:13;31.90;;;2.03;;
2630;SDS011;1325;48.414;9.952;2022-07-11T14:10:40;31.87;;;2.50;;
2630;SDS011;1325;48.414;9.952;2022-07-11T14:13:09;31.97;;;1.77;;
2630;SDS011;1325;48.414;9.952;2022-07-11T14:15:37;30.80;;;1.90;;
2630;SDS011;1325;48.414;9.952;2022-07-11T14:18:06;30.77;;;2.00;;
2630;SDS011;1325;48.414;9.952;2022-07-11T14:20:33;32.20;;;1.60;;
2630;SDS011;1325;48.414;9.952;2022-07-11T14:23:01;33.00;;;1.77;;
2630;SDS011;1325;48.414;9.952;2022-07-11T14:25:28;31.17;;;1.93;;
2630;SDS011;1325;48.414;9.952;2022-07-11T14:27:56;30.57;;;1.67;;
2630;SDS011;1325;48.414;9.952;2022-07-11T14:30:24;30.67;;;1.90;;
2630;SDS011;1325;48.414;9.952;2022-07-11T14:32:52;31.03;;;2.00;;
2630;SDS011;1325;48.414;9.952;2022-07-11T14:35:19;31.13;;;2.00;;
2630;SDS011;1325;48.414;9.952;2022-07-11T14:37:46;30.77;;;1.97;;
2630;SDS011;1325;48.414;9.952;2022-07-11T14:40:13;30.40;;;1.77;;
2630;SDS011;1325;48.414;9.952;2022-07-11T14:42:41;31.97;;;1.90;;
2630;SDS011;1325;48.414;9.952;2022-07-11T14:45:09;30.50;;;1.77;;
2630;SDS011;1325;48.414;9.952;2022-07-11T14:47:38;31.57;;;2.00;;
2630;SDS011;1325;48.414;9.952;2022-07-11T14:50:07;31.63;;;2.30;;
2630;SDS011;1325;48.414;9.952;2022-07-11T14:52:35;30.20;;;1.70;;
2630;SDS011;1325;48.414;9.952;2022-07-11T14:55:03;31.17;;;1.70;;
2630;SDS011;1325;48.414;9.952;2022-07-11T14:57:32;32.60;;;1.80;;
2630;SDS011;1325;48.414;9.952;2022-07-11T14:59:59;30.97;;;2.10;;
2630;SDS011;1325;48.414;9.952;2022-07-11T15:02:27;30.67;;;1.73;;
2630;SDS011;1325;48.414;9.952;2022-07-11T15:05:09;30.90;;;1.97;;
2630;SDS011;1325;48.414;9.952;2022-07-11T15:07:37;30.80;;;1.90;;
2630;SDS011;1325;48.414;9.952;2022-07-11T15:10:21;30.40;;;1.73;;
2630;SDS011;1325;48.414;9.952;2022-07-11T15:13:05;31.47;;;1.97;;
2630;SDS011;1325;48.414;9.952;2022-07-11T15:15:32;31.20;;;2.17;;
2630;SDS011;1325;48.414;9.952;2022-07-11T15:18:00;30.90;;;2.00;;
2630;SDS011;1325;48.414;9.952;2022-07-11T15:20:28;30.50;;;2.00;;
2630;SDS011;1325;48.414;9.952;2022-07-11T15:22:55;32.17;;;2.03;;